sensor_id;sensor_type;location;lat;lon;timestamp;temperature;humidity
19892;DHT22;10108;50.142;8.724;2024-03-08T00:01:48;6.70;99.80
19892;DHT22;10108;50.142;8.724;2024-03-08T00:04:14;6.60;99.80
19892;DHT22;10108;50.142;8.724;2024-03-08T00:06:41;6.60;99.90
19892;DHT22;10108;50.142;8.724;2024-03-08T00:09:10;6.50;99.80
19892;DHT22;10108;50.142;8.724;2024-03-08T00:11:36;6.50;99.90
19892;DHT22;10108;50.142;8.724;2024-03-08T00:14:02;6.50;99.90
19892;DHT22;10108;50.142;8.724;2024-03-08T00:16:33;6.50;99.80
19892;DHT22;10108;50.142;8.724;2024-03-08T00:19:00;6.50;99.90
19892;DHT22;10108;50.142;8.724;2024-03-08T00:21:26;6.50;99.90
19892;DHT22;10108;50.142;8.724;2024-03-08T00:23:55;6.40;99.90
19892;DHT22;10108;50.142;8.724;2024-03-08T00:26:21;6.30;99.90
19892;DHT22;10108;50.142;8.724;2024-03-08T00:28:48;6.30;99.90
19892;DHT22;10108;50.142;8.724;2024-03-08T00:31:15;6.30;99.90
19892;DHT22;10108;50.142;8.724;2024-03-08T00:33:44;6.20;99.90
19892;DHT22;10108;50.142;8.724;2024-03-08T00:36:10;6.20;99.90
19892;DHT22;10108;50.142;8.724;2024-03-08T00:38:36;6.10;99.90
19892;DHT22;10108;50.142;8.724;2024-03-08T00:41:03;6.20;99.90
19892;DHT22;10108;50.142;8.724;2024-03-08T00:43:29;6.10;99.90
19892;DHT22;10108;50.142;8.724;2024-03-08T00:45:58;6.00;99.90
19892;DHT22;10108;50.142;8.724;2024-03-08T00:48:25;6.00;99.90
19892;DHT22;10108;50.142;8.724;2024-03-08T00:50:51;6.00;99.90
19892;DHT22;10108;50.142;8.724;2024-03-08T00:53:17;5.90;99.90
19892;DHT22;10108;50.142;8.724;2024-03-08T00:55:43;5.90;99.90
19892;DHT22;10108;50.142;8.724;2024-03-08T00:58:13;5.90;99.90
19892;DHT22;10108;50.142;8.724;2024-03-08T01:00:39;5.90;99.90
19892;DHT22;10108;50.142;8.724;2024-03-08T01:03:05;5.90;99.90
19892;DHT22;10108;50.142;8.724;2024-03-08T01:05:33;5.80;99.90
19892;DHT22;10108;50.142;8.724;2024-03-08T01:08:02;5.80;99.90
19892;DHT22;10108;50.142;8.724;2024-03-08T01:10:29;5.80;99.90
19892;DHT22;10108;50.142;8.724;2024-03-08T01:12:55;5.80;99.90
19892;DHT22;10108;50.142;8.724;2024-03-08T01:15:23;5.80;99.90
19892;DHT22;10108;50.142;8.724;2024-03-08T01:17:49;5.90;99.90
19892;DHT22;10108;50.142;8.724;2024-03-08T01:20:16;5.80;99.90
19892;DHT22;10108;50.142;8.724;2024-03-08T01:22:44;5.90;99.90
19892;DHT22;10108;50.142;8.724;2024-03-08T01:25:10;5.90;99.90
19892;DHT22;10108;50.142;8.724;2024-03-08T01:27:36;5.80;99.90
19892;DHT22;10108;50.142;8.724;2024-03-08T01:30:03;5.90;99.90
19892;DHT22;10108;50.142;8.724;2024-03-08T01:32:30;5.90;99.90
19892;DHT22;10108;50.142;8.724;2024-03-08T01:34:56;5.90;99.90
19892;DHT22;10108;50.142;8.724;2024-03-08T01:37:22;5.90;99.90
19892;DHT22;10108;50.142;8.724;2024-03-08T01:39:49;5.80;99.90
19892;DHT22;10108;50.142;8.724;2024-03-08T01:42:15;5.90;99.90
19892;DHT22;10108;50.142;8.724;2024-03-08T01:44:43;5.80;99.90
19892;DHT22;10108;50.142;8.724;2024-03-08T01:47:11;5.80;99.90
19892;DHT22;10108;50.142;8.724;2024-03-08T01:49:37;5.80;99.90
19892;DHT22;10108;50.142;8.724;2024-03-08T01:52:04;5.80;99.90
19892;DHT22;10108;50.142;8.724;2024-03-08T01:54:31;5.80;99.90
19892;DHT22;10108;50.142;8.724;2024-03-08T01:56:57;5.70;99.90
19892;DHT22;10108;50.142;8.724;2024-03-08T01:59:26;5.70;99.80
19892;DHT22;10108;50.142;8.724;2024-03-08T02:01:55;5.70;99.70
19892;DHT22;10108;50.142;8.724;2024-03-08T02:04:22;5.60;99.90
19892;DHT22;10108;50.142;8.724;2024-03-08T02:06:48;5.60;99.90
19892;DHT22;10108;50.142;8.724;2024-03-08T02:09:15;5.60;99.90
19892;DHT22;10108;50.142;8.724;2024-03-08T02:11:41;5.60;99.90
19892;DHT22;10108;50.142;8.724;2024-03-08T02:14:08;5.50;99.90
19892;DHT22;10108;50.142;8.724;2024-03-08T02:16:34;5.50;99.90
19892;DHT22;10108;50.142;8.724;2024-03-08T02:19:00;5.50;99.90
19892;DHT22;10108;50.142;8.724;2024-03-08T02:21:26;5.40;99.90
19892;DHT22;10108;50.142;8.724;2024-03-08T02:23:53;5.40;99.90
19892;DHT22;10108;50.142;8.724;2024-03-08T02:26:19;5.40;99.70
19892;DHT22;10108;50.142;8.724;2024-03-08T02:28:46;5.40;99.80
19892;DHT22;10108;50.142;8.724;2024-03-08T02:31:12;5.30;99.90
19892;DHT22;10108;50.142;8.724;2024-03-08T02:33:39;5.30;99.60
19892;DHT22;10108;50.142;8.724;2024-03-08T02:36:06;5.30;99.90
19892;DHT22;10108;50.142;8.724;2024-03-08T02:38:32;5.20;99.50
19892;DHT22;10108;50.142;8.724;2024-03-08T02:40:59;5.20;99.60
19892;DHT22;10108;50.142;8.724;2024-03-08T02:43:25;5.10;99.30
19892;DHT22;10108;50.142;8.724;2024-03-08T02:45:51;5.10;99.40
19892;DHT22;10108;50.142;8.724;2024-03-08T02:48:21;5.10;99.40
19892;DHT22;10108;50.142;8.724;2024-03-08T02:50:47;5.00;99.90
19892;DHT22;10108;50.142;8.724;2024-03-08T02:53:14;5.10;99.90
19892;DHT22;10108;50.142;8.724;2024-03-08T02:55:41;5.00;99.80
19892;DHT22;10108;50.142;8.724;2024-03-08T02:58:08;5.00;99.80
19892;DHT22;10108;50.142;8.724;2024-03-08T03:00:37;5.10;99.90
19892;DHT22;10108;50.142;8.724;2024-03-08T03:03:05;5.10;99.90
19892;DHT22;10108;50.142;8.724;2024-03-08T03:05:32;5.10;99.90
19892;DHT22;10108;50.142;8.724;2024-03-08T03:07:59;5.10;99.90
19892;DHT22;10108;50.142;8.724;2024-03-08T03:10:26;5.10;99.90
19892;DHT22;10108;50.142;8.724;2024-03-08T03:12:52;5.20;99.90
19892;DHT22;10108;50.142;8.724;2024-03-08T03:15:19;5.10;99.90
19892;DHT22;10108;50.142;8.724;2024-03-08T03:17:49;5.10;99.90
19892;DHT22;10108;50.142;8.724;2024-03-08T03:20:19;5.00;99.90
19892;DHT22;10108;50.142;8.724;2024-03-08T03:22:53;4.90;99.90
19892;DHT22;10108;50.142;8.724;2024-03-08T03:25:20;4.90;99.90
19892;DHT22;10108;50.142;8.724;2024-03-08T03:27:55;4.90;99.90
19892;DHT22;10108;50.142;8.724;2024-03-08T03:30:24;4.90;99.90
19892;DHT22;10108;50.142;8.724;2024-03-08T03:32:53;5.00;99.90
19892;DHT22;10108;50.142;8.724;2024-03-08T03:35:21;5.00;99.90
19892;DHT22;10108;50.142;8.724;2024-03-08T03:37:48;5.00;99.90
19892;DHT22;10108;50.142;8.724;2024-03-08T03:40:30;4.90;99.90
19892;DHT22;10108;50.142;8.724;2024-03-08T03:42:57;4.90;99.90
19892;DHT22;10108;50.142;8.724;2024-03-08T03:45:24;4.90;99.90
19892;DHT22;10108;50.142;8.724;2024-03-08T03:47:50;4.90;99.90
19892;DHT22;10108;50.142;8.724;2024-03-08T03:50:18;4.80;99.90
19892;DHT22;10108;50.142;8.724;2024-03-08T03:52:51;4.90;99.90
19892;DHT22;10108;50.142;8.724;2024-03-08T03:55:17;4.90;99.90
19892;DHT22;10108;50.142;8.724;2024-03-08T03:57:44;4.90;99.90
19892;DHT22;10108;50.142;8.724;2024-03-08T04:00:12;4.90;99.90
19892;DHT22;10108;50.142;8.724;2024-03-08T04:02:41;4.90;99.90
19892;DHT22;10108;50.142;8.724;2024-03-08T04:05:09;4.90;99.90
19892;DHT22;10108;50.142;8.724;2024-03-08T04:07:36;4.90;99.90
19892;DHT22;10108;50.142;8.724;2024-03-08T04:10:04;4.90;99.90
19892;DHT22;10108;50.142;8.724;2024-03-08T04:12:35;4.90;99.90
19892;DHT22;10108;50.142;8.724;2024-03-08T04:15:02;4.90;99.90
19892;DHT22;10108;50.142;8.724;2024-03-08T04:17:28;4.90;99.90
19892;DHT22;10108;50.142;8.724;2024-03-08T04:19:57;5.00;99.90
19892;DHT22;10108;50.142;8.724;2024-03-08T04:22:23;5.00;99.90
19892;DHT22;10108;50.142;8.724;2024-03-08T04:24:49;5.00;99.90
19892;DHT22;10108;50.142;8.724;2024-03-08T04:27:15;5.00;99.90
19892;DHT22;10108;50.142;8.724;2024-03-08T04:29:42;5.00;99.90
19892;DHT22;10108;50.142;8.724;2024-03-08T04:32:10;4.90;99.90
19892;DHT22;10108;50.142;8.724;2024-03-08T04:34:37;5.00;99.90
19892;DHT22;10108;50.142;8.724;2024-03-08T04:37:03;5.00;99.90
19892;DHT22;10108;50.142;8.724;2024-03-08T04:39:31;5.00;99.90
19892;DHT22;10108;50.142;8.724;2024-03-08T04:42:02;4.90;99.90
19892;DHT22;10108;50.142;8.724;2024-03-08T04:44:30;4.90;99.90
19892;DHT22;10108;50.142;8.724;2024-03-08T04:46:57;4.90;99.90
19892;DHT22;10108;50.142;8.724;2024-03-08T04:49:24;4.90;99.90
19892;DHT22;10108;50.142;8.724;2024-03-08T04:51:50;4.90;99.90
19892;DHT22;10108;50.142;8.724;2024-03-08T04:54:17;4.90;99.90
19892;DHT22;10108;50.142;8.724;2024-03-08T04:56:43;4.90;99.90
19892;DHT22;10108;50.142;8.724;2024-03-08T04:59:09;4.90;99.90
19892;DHT22;10108;50.142;8.724;2024-03-08T05:01:35;4.90;99.90
19892;DHT22;10108;50.142;8.724;2024-03-08T05:04:05;4.90;99.90
19892;DHT22;10108;50.142;8.724;2024-03-08T05:06:31;4.90;99.90
19892;DHT22;10108;50.142;8.724;2024-03-08T05:08:58;4.90;99.90
19892;DHT22;10108;50.142;8.724;2024-03-08T05:11:24;4.90;99.90
19892;DHT22;10108;50.142;8.724;2024-03-08T05:13:50;4.90;99.90
19892;DHT22;10108;50.142;8.724;2024-03-08T05:16:16;4.90;99.90
19892;DHT22;10108;50.142;8.724;2024-03-08T05:18:43;4.90;99.90
19892;DHT22;10108;50.142;8.724;2024-03-08T05:21:09;4.90;99.90
19892;DHT22;10108;50.142;8.724;2024-03-08T05:23:36;4.90;99.90
19892;DHT22;10108;50.142;8.724;2024-03-08T05:26:04;4.80;99.90
19892;DHT22;10108;50.142;8.724;2024-03-08T05:28:31;4.80;99.90
19892;DHT22;10108;50.142;8.724;2024-03-08T05:30:57;4.80;99.90
19892;DHT22;10108;50.142;8.724;2024-03-08T05:33:23;4.80;99.90
19892;DHT22;10108;50.142;8.724;2024-03-08T05:35:50;4.80;99.90
19892;DHT22;10108;50.142;8.724;2024-03-08T05:38:16;4.80;99.90
19892;DHT22;10108;50.142;8.724;2024-03-08T05:40:42;4.80;99.90
19892;DHT22;10108;50.142;8.724;2024-03-08T05:43:09;4.80;99.90
19892;DHT22;10108;50.142;8.724;2024-03-08T05:45:35;4.70;99.90
19892;DHT22;10108;50.142;8.724;2024-03-08T05:48:01;4.70;99.90
19892;DHT22;10108;50.142;8.724;2024-03-08T05:50:28;4.70;99.90
19892;DHT22;10108;50.142;8.724;2024-03-08T05:52:54;4.70;99.90
19892;DHT22;10108;50.142;8.724;2024-03-08T05:55:21;4.70;99.90
19892;DHT22;10108;50.142;8.724;2024-03-08T05:57:48;4.70;99.90
19892;DHT22;10108;50.142;8.724;2024-03-08T06:00:15;4.70;99.90
19892;DHT22;10108;50.142;8.724;2024-03-08T06:02:42;4.60;99.90
19892;DHT22;10108;50.142;8.724;2024-03-08T06:05:10;4.70;99.90
19892;DHT22;10108;50.142;8.724;2024-03-08T06:07:37;4.70;99.90
19892;DHT22;10108;50.142;8.724;2024-03-08T06:10:10;4.70;99.90
19892;DHT22;10108;50.142;8.724;2024-03-08T06:12:37;4.60;99.90
19892;DHT22;10108;50.142;8.724;2024-03-08T06:15:10;4.60;99.90
19892;DHT22;10108;50.142;8.724;2024-03-08T06:17:41;4.60;99.90
19892;DHT22;10108;50.142;8.724;2024-03-08T06:20:08;4.60;99.90
19892;DHT22;10108;50.142;8.724;2024-03-08T06:22:42;4.70;99.90
19892;DHT22;10108;50.142;8.724;2024-03-08T06:25:09;4.70;99.90
19892;DHT22;10108;50.142;8.724;2024-03-08T06:27:37;4.80;99.90
19892;DHT22;10108;50.142;8.724;2024-03-08T06:30:03;4.80;99.90
19892;DHT22;10108;50.142;8.724;2024-03-08T06:32:31;4.80;99.90
19892;DHT22;10108;50.142;8.724;2024-03-08T06:35:03;4.90;99.90
19892;DHT22;10108;50.142;8.724;2024-03-08T06:37:35;4.90;99.90
19892;DHT22;10108;50.142;8.724;2024-03-08T06:40:02;4.90;99.90
19892;DHT22;10108;50.142;8.724;2024-03-08T06:42:29;4.90;99.90
19892;DHT22;10108;50.142;8.724;2024-03-08T06:44:59;4.90;99.90
19892;DHT22;10108;50.142;8.724;2024-03-08T06:47:31;4.90;99.90
19892;DHT22;10108;50.142;8.724;2024-03-08T06:49:57;4.90;99.90
19892;DHT22;10108;50.142;8.724;2024-03-08T06:52:24;5.00;99.90
19892;DHT22;10108;50.142;8.724;2024-03-08T06:54:51;5.10;99.90
19892;DHT22;10108;50.142;8.724;2024-03-08T06:57:18;5.10;99.90
19892;DHT22;10108;50.142;8.724;2024-03-08T06:59:49;5.10;99.90
19892;DHT22;10108;50.142;8.724;2024-03-08T07:02:15;5.10;99.90
19892;DHT22;10108;50.142;8.724;2024-03-08T07:04:42;5.20;99.90
19892;DHT22;10108;50.142;8.724;2024-03-08T07:07:08;5.20;99.90
19892;DHT22;10108;50.142;8.724;2024-03-08T07:09:37;5.20;99.90
19892;DHT22;10108;50.142;8.724;2024-03-08T07:12:04;5.30;99.90
19892;DHT22;10108;50.142;8.724;2024-03-08T07:14:30;5.40;99.90
19892;DHT22;10108;50.142;8.724;2024-03-08T07:16:59;5.40;99.90
19892;DHT22;10108;50.142;8.724;2024-03-08T07:19:25;5.40;99.90
19892;DHT22;10108;50.142;8.724;2024-03-08T07:21:52;5.40;99.90
19892;DHT22;10108;50.142;8.724;2024-03-08T07:24:18;5.40;99.90
19892;DHT22;10108;50.142;8.724;2024-03-08T07:27:04;5.40;99.90
19892;DHT22;10108;50.142;8.724;2024-03-08T07:29:34;5.40;99.90
19892;DHT22;10108;50.142;8.724;2024-03-08T07:32:01;5.40;99.90
19892;DHT22;10108;50.142;8.724;2024-03-08T07:34:48;5.50;99.90
19892;DHT22;10108;50.142;8.724;2024-03-08T07:37:15;5.60;99.90
19892;DHT22;10108;50.142;8.724;2024-03-08T07:39:41;5.60;99.90
19892;DHT22;10108;50.142;8.724;2024-03-08T07:42:07;5.70;99.90
19892;DHT22;10108;50.142;8.724;2024-03-08T07:44:34;5.70;99.90
19892;DHT22;10108;50.142;8.724;2024-03-08T07:47:00;5.70;99.90
19892;DHT22;10108;50.142;8.724;2024-03-08T07:49:26;5.70;99.90
19892;DHT22;10108;50.142;8.724;2024-03-08T07:51:53;5.70;99.90
19892;DHT22;10108;50.142;8.724;2024-03-08T07:54:19;5.80;99.90
19892;DHT22;10108;50.142;8.724;2024-03-08T07:56:46;5.80;99.90
19892;DHT22;10108;50.142;8.724;2024-03-08T07:59:12;5.90;99.90
19892;DHT22;10108;50.142;8.724;2024-03-08T08:01:39;5.90;99.90
19892;DHT22;10108;50.142;8.724;2024-03-08T08:04:05;5.90;99.90
19892;DHT22;10108;50.142;8.724;2024-03-08T08:06:31;5.90;99.90
19892;DHT22;10108;50.142;8.724;2024-03-08T08:08:59;5.90;99.90
19892;DHT22;10108;50.142;8.724;2024-03-08T08:11:27;6.00;99.90
19892;DHT22;10108;50.142;8.724;2024-03-08T08:13:56;6.10;99.90
19892;DHT22;10108;50.142;8.724;2024-03-08T08:16:23;6.10;99.90
19892;DHT22;10108;50.142;8.724;2024-03-08T08:18:51;6.20;99.90
19892;DHT22;10108;50.142;8.724;2024-03-08T08:21:18;6.20;99.90
19892;DHT22;10108;50.142;8.724;2024-03-08T08:23:45;6.20;99.90
19892;DHT22;10108;50.142;8.724;2024-03-08T08:26:12;6.30;99.90
19892;DHT22;10108;50.142;8.724;2024-03-08T08:28:38;6.20;99.90
19892;DHT22;10108;50.142;8.724;2024-03-08T08:31:06;6.30;99.90
19892;DHT22;10108;50.142;8.724;2024-03-08T08:33:34;6.40;99.90
19892;DHT22;10108;50.142;8.724;2024-03-08T08:36:01;6.40;99.90
19892;DHT22;10108;50.142;8.724;2024-03-08T08:38:27;6.40;99.90
19892;DHT22;10108;50.142;8.724;2024-03-08T08:40:54;6.40;99.90
19892;DHT22;10108;50.142;8.724;2024-03-08T08:43:20;6.50;99.90
19892;DHT22;10108;50.142;8.724;2024-03-08T08:45:50;6.50;99.90
19892;DHT22;10108;50.142;8.724;2024-03-08T08:48:19;6.50;99.90
19892;DHT22;10108;50.142;8.724;2024-03-08T08:50:45;6.60;99.90
19892;DHT22;10108;50.142;8.724;2024-03-08T08:53:13;6.60;99.90
19892;DHT22;10108;50.142;8.724;2024-03-08T08:55:40;6.60;99.90
19892;DHT22;10108;50.142;8.724;2024-03-08T08:58:07;6.60;99.90
19892;DHT22;10108;50.142;8.724;2024-03-08T09:00:33;6.60;99.90
19892;DHT22;10108;50.142;8.724;2024-03-08T09:03:00;6.60;99.90
19892;DHT22;10108;50.142;8.724;2024-03-08T09:05:28;6.70;99.90
19892;DHT22;10108;50.142;8.724;2024-03-08T09:07:55;6.60;99.90
19892;DHT22;10108;50.142;8.724;2024-03-08T09:10:21;6.70;99.90
19892;DHT22;10108;50.142;8.724;2024-03-08T09:12:47;6.70;99.90
19892;DHT22;10108;50.142;8.724;2024-03-08T09:15:14;6.80;99.90
19892;DHT22;10108;50.142;8.724;2024-03-08T09:17:41;6.80;99.90
19892;DHT22;10108;50.142;8.724;2024-03-08T09:20:10;6.80;99.90
19892;DHT22;10108;50.142;8.724;2024-03-08T09:22:36;6.80;99.90
19892;DHT22;10108;50.142;8.724;2024-03-08T09:25:03;6.80;99.90
19892;DHT22;10108;50.142;8.724;2024-03-08T09:27:31;6.90;99.90
19892;DHT22;10108;50.142;8.724;2024-03-08T09:29:57;6.90;99.90
19892;DHT22;10108;50.142;8.724;2024-03-08T09:32:24;7.00;99.80
19892;DHT22;10108;50.142;8.724;2024-03-08T09:34:50;7.00;99.90
19892;DHT22;10108;50.142;8.724;2024-03-08T09:37:16;7.00;99.80
19892;DHT22;10108;50.142;8.724;2024-03-08T09:39:43;7.00;99.40
19892;DHT22;10108;50.142;8.724;2024-03-08T09:42:11;7.10;99.50
19892;DHT22;10108;50.142;8.724;2024-03-08T09:44:44;7.10;99.50
19892;DHT22;10108;50.142;8.724;2024-03-08T09:47:14;7.20;99.10
19892;DHT22;10108;50.142;8.724;2024-03-08T09:49:43;7.20;99.10
19892;DHT22;10108;50.142;8.724;2024-03-08T09:52:10;7.30;99.20
19892;DHT22;10108;50.142;8.724;2024-03-08T09:54:38;7.30;98.60
19892;DHT22;10108;50.142;8.724;2024-03-08T09:57:06;7.30;98.90
19892;DHT22;10108;50.142;8.724;2024-03-08T09:59:34;7.30;98.50
19892;DHT22;10108;50.142;8.724;2024-03-08T10:02:03;7.30;98.50
19892;DHT22;10108;50.142;8.724;2024-03-08T10:04:30;7.40;98.20
19892;DHT22;10108;50.142;8.724;2024-03-08T10:07:01;7.40;98.30
19892;DHT22;10108;50.142;8.724;2024-03-08T10:09:27;7.40;98.60
19892;DHT22;10108;50.142;8.724;2024-03-08T10:11:56;7.50;98.90
19892;DHT22;10108;50.142;8.724;2024-03-08T10:14:24;7.50;98.60
19892;DHT22;10108;50.142;8.724;2024-03-08T10:16:52;7.50;98.40
19892;DHT22;10108;50.142;8.724;2024-03-08T10:19:20;7.60;98.50
19892;DHT22;10108;50.142;8.724;2024-03-08T10:21:50;7.60;98.30
19892;DHT22;10108;50.142;8.724;2024-03-08T10:24:18;7.60;98.00
19892;DHT22;10108;50.142;8.724;2024-03-08T10:26:44;7.60;98.50
19892;DHT22;10108;50.142;8.724;2024-03-08T10:29:10;7.70;99.00
19892;DHT22;10108;50.142;8.724;2024-03-08T10:31:44;7.70;98.40
19892;DHT22;10108;50.142;8.724;2024-03-08T10:34:11;7.70;98.40
19892;DHT22;10108;50.142;8.724;2024-03-08T10:36:39;7.70;97.90
19892;DHT22;10108;50.142;8.724;2024-03-08T10:39:24;7.70;97.80
19892;DHT22;10108;50.142;8.724;2024-03-08T10:41:58;7.80;98.00
19892;DHT22;10108;50.142;8.724;2024-03-08T10:47:11;7.80;98.30
19892;DHT22;10108;50.142;8.724;2024-03-08T10:52:30;7.90;98.00
19892;DHT22;10108;50.142;8.724;2024-03-08T10:54:57;7.90;98.10
19892;DHT22;10108;50.142;8.724;2024-03-08T10:57:26;8.00;98.20
19892;DHT22;10108;50.142;8.724;2024-03-08T10:59:53;8.00;98.10
19892;DHT22;10108;50.142;8.724;2024-03-08T11:02:21;8.00;97.70
19892;DHT22;10108;50.142;8.724;2024-03-08T11:04:49;8.00;98.00
19892;DHT22;10108;50.142;8.724;2024-03-08T11:07:16;8.00;98.20
19892;DHT22;10108;50.142;8.724;2024-03-08T11:09:48;8.10;98.00
19892;DHT22;10108;50.142;8.724;2024-03-08T11:12:21;8.10;97.90
19892;DHT22;10108;50.142;8.724;2024-03-08T11:14:49;8.20;97.50
19892;DHT22;10108;50.142;8.724;2024-03-08T11:19:58;8.20;97.40
19892;DHT22;10108;50.142;8.724;2024-03-08T11:22:34;8.20;97.20
19892;DHT22;10108;50.142;8.724;2024-03-08T11:25:04;8.20;97.20
19892;DHT22;10108;50.142;8.724;2024-03-08T11:27:36;8.20;97.70
19892;DHT22;10108;50.142;8.724;2024-03-08T11:32:45;8.20;97.10
19892;DHT22;10108;50.142;8.724;2024-03-08T11:35:22;8.30;97.90
19892;DHT22;10108;50.142;8.724;2024-03-08T11:37:51;8.40;97.90
19892;DHT22;10108;50.142;8.724;2024-03-08T11:40:18;8.40;97.50
19892;DHT22;10108;50.142;8.724;2024-03-08T11:42:46;8.50;97.00
19892;DHT22;10108;50.142;8.724;2024-03-08T11:45:18;8.50;96.90
19892;DHT22;10108;50.142;8.724;2024-03-08T11:47:47;8.50;96.90
19892;DHT22;10108;50.142;8.724;2024-03-08T11:50:14;8.50;96.70
19892;DHT22;10108;50.142;8.724;2024-03-08T11:52:43;8.50;96.90
19892;DHT22;10108;50.142;8.724;2024-03-08T11:55:11;8.50;97.00
19892;DHT22;10108;50.142;8.724;2024-03-08T11:57:39;8.60;97.40
19892;DHT22;10108;50.142;8.724;2024-03-08T12:00:05;8.60;97.00
19892;DHT22;10108;50.142;8.724;2024-03-08T12:02:34;8.60;96.60
19892;DHT22;10108;50.142;8.724;2024-03-08T12:05:08;8.60;96.60
19892;DHT22;10108;50.142;8.724;2024-03-08T12:07:38;8.60;96.50
19892;DHT22;10108;50.142;8.724;2024-03-08T12:10:15;8.60;96.80
19892;DHT22;10108;50.142;8.724;2024-03-08T12:12:46;8.60;96.50
19892;DHT22;10108;50.142;8.724;2024-03-08T12:15:15;8.70;97.10
19892;DHT22;10108;50.142;8.724;2024-03-08T12:17:41;8.70;96.50
19892;DHT22;10108;50.142;8.724;2024-03-08T12:20:15;8.80;96.90
19892;DHT22;10108;50.142;8.724;2024-03-08T12:22:43;8.80;96.90
19892;DHT22;10108;50.142;8.724;2024-03-08T12:25:11;8.80;97.10
19892;DHT22;10108;50.142;8.724;2024-03-08T12:27:42;8.80;96.90
19892;DHT22;10108;50.142;8.724;2024-03-08T12:30:25;8.80;96.40
19892;DHT22;10108;50.142;8.724;2024-03-08T12:32:56;8.80;96.50
19892;DHT22;10108;50.142;8.724;2024-03-08T12:35:24;8.90;96.70
19892;DHT22;10108;50.142;8.724;2024-03-08T12:37:55;8.90;97.10
19892;DHT22;10108;50.142;8.724;2024-03-08T12:40:26;8.90;96.80
19892;DHT22;10108;50.142;8.724;2024-03-08T12:42:58;8.90;96.90
19892;DHT22;10108;50.142;8.724;2024-03-08T12:45:24;8.90;96.70
19892;DHT22;10108;50.142;8.724;2024-03-08T12:47:52;9.00;96.90
19892;DHT22;10108;50.142;8.724;2024-03-08T12:50:23;9.00;96.60
19892;DHT22;10108;50.142;8.724;2024-03-08T12:52:51;9.00;96.70
19892;DHT22;10108;50.142;8.724;2024-03-08T12:55:20;9.00;97.40
19892;DHT22;10108;50.142;8.724;2024-03-08T12:57:46;9.10;97.10
19892;DHT22;10108;50.142;8.724;2024-03-08T13:00:15;9.10;97.30
19892;DHT22;10108;50.142;8.724;2024-03-08T13:02:50;9.10;97.10
19892;DHT22;10108;50.142;8.724;2024-03-08T13:05:17;9.20;97.30
19892;DHT22;10108;50.142;8.724;2024-03-08T13:07:44;9.20;97.10
19892;DHT22;10108;50.142;8.724;2024-03-08T13:10:13;9.20;96.80
19892;DHT22;10108;50.142;8.724;2024-03-08T13:12:43;9.20;96.90
19892;DHT22;10108;50.142;8.724;2024-03-08T13:15:10;9.20;96.70
19892;DHT22;10108;50.142;8.724;2024-03-08T13:17:47;9.20;97.30
19892;DHT22;10108;50.142;8.724;2024-03-08T13:20:14;9.20;96.70
19892;DHT22;10108;50.142;8.724;2024-03-08T13:22:45;9.20;96.60
19892;DHT22;10108;50.142;8.724;2024-03-08T13:25:13;9.20;97.20
19892;DHT22;10108;50.142;8.724;2024-03-08T13:27:40;9.30;97.30
19892;DHT22;10108;50.142;8.724;2024-03-08T13:30:10;9.30;97.00
19892;DHT22;10108;50.142;8.724;2024-03-08T13:32:41;9.30;97.10
19892;DHT22;10108;50.142;8.724;2024-03-08T13:35:11;9.30;98.10
19892;DHT22;10108;50.142;8.724;2024-03-08T13:37:43;9.40;97.40
19892;DHT22;10108;50.142;8.724;2024-03-08T13:40:10;9.40;97.50
19892;DHT22;10108;50.142;8.724;2024-03-08T13:42:40;9.40;97.80
19892;DHT22;10108;50.142;8.724;2024-03-08T13:45:10;9.40;97.60
19892;DHT22;10108;50.142;8.724;2024-03-08T13:47:40;9.40;97.60
19892;DHT22;10108;50.142;8.724;2024-03-08T13:50:10;9.50;97.10
19892;DHT22;10108;50.142;8.724;2024-03-08T13:52:48;9.50;96.90
19892;DHT22;10108;50.142;8.724;2024-03-08T13:55:18;9.50;97.00
19892;DHT22;10108;50.142;8.724;2024-03-08T13:57:44;9.50;97.00
19892;DHT22;10108;50.142;8.724;2024-03-08T14:00:12;9.50;96.90
19892;DHT22;10108;50.142;8.724;2024-03-08T14:02:41;9.50;97.00
19892;DHT22;10108;50.142;8.724;2024-03-08T14:05:08;9.50;96.50
19892;DHT22;10108;50.142;8.724;2024-03-08T14:07:35;9.50;97.20
19892;DHT22;10108;50.142;8.724;2024-03-08T14:10:02;9.50;97.00
19892;DHT22;10108;50.142;8.724;2024-03-08T14:12:29;9.50;97.00
19892;DHT22;10108;50.142;8.724;2024-03-08T14:14:56;9.50;97.10
19892;DHT22;10108;50.142;8.724;2024-03-08T14:17:26;9.60;97.30
19892;DHT22;10108;50.142;8.724;2024-03-08T14:19:53;9.60;97.00
19892;DHT22;10108;50.142;8.724;2024-03-08T14:22:25;9.60;97.30
19892;DHT22;10108;50.142;8.724;2024-03-08T14:24:52;9.70;97.50
19892;DHT22;10108;50.142;8.724;2024-03-08T14:27:18;9.70;96.50
19892;DHT22;10108;50.142;8.724;2024-03-08T14:29:44;9.70;96.80
19892;DHT22;10108;50.142;8.724;2024-03-08T14:32:11;9.70;96.30
19892;DHT22;10108;50.142;8.724;2024-03-08T14:34:39;9.80;96.10
19892;DHT22;10108;50.142;8.724;2024-03-08T14:37:05;9.70;95.90
19892;DHT22;10108;50.142;8.724;2024-03-08T14:39:37;9.70;96.10
19892;DHT22;10108;50.142;8.724;2024-03-08T14:42:03;9.70;96.40
19892;DHT22;10108;50.142;8.724;2024-03-08T14:44:32;9.70;96.20
19892;DHT22;10108;50.142;8.724;2024-03-08T14:46:58;9.70;96.20
19892;DHT22;10108;50.142;8.724;2024-03-08T14:49:26;9.70;96.40
19892;DHT22;10108;50.142;8.724;2024-03-08T14:51:55;9.70;96.20
19892;DHT22;10108;50.142;8.724;2024-03-08T14:54:24;9.70;95.90
19892;DHT22;10108;50.142;8.724;2024-03-08T14:56:50;9.80;96.30
19892;DHT22;10108;50.142;8.724;2024-03-08T14:59:17;9.80;96.30
19892;DHT22;10108;50.142;8.724;2024-03-08T15:01:46;9.80;96.10
19892;DHT22;10108;50.142;8.724;2024-03-08T15:04:13;9.80;96.20
19892;DHT22;10108;50.142;8.724;2024-03-08T15:06:40;9.80;95.90
19892;DHT22;10108;50.142;8.724;2024-03-08T15:09:09;9.80;96.50
19892;DHT22;10108;50.142;8.724;2024-03-08T15:11:46;9.80;96.10
19892;DHT22;10108;50.142;8.724;2024-03-08T15:14:15;9.80;96.50
19892;DHT22;10108;50.142;8.724;2024-03-08T15:16:45;9.80;96.00
19892;DHT22;10108;50.142;8.724;2024-03-08T15:19:14;9.80;96.00
19892;DHT22;10108;50.142;8.724;2024-03-08T15:21:41;9.80;95.70
19892;DHT22;10108;50.142;8.724;2024-03-08T15:24:11;9.90;96.00
19892;DHT22;10108;50.142;8.724;2024-03-08T15:26:41;9.90;96.00
19892;DHT22;10108;50.142;8.724;2024-03-08T15:29:09;9.90;96.30
19892;DHT22;10108;50.142;8.724;2024-03-08T15:31:35;9.90;95.70
19892;DHT22;10108;50.142;8.724;2024-03-08T15:34:04;10.00;95.40
19892;DHT22;10108;50.142;8.724;2024-03-08T15:36:33;10.00;95.00
19892;DHT22;10108;50.142;8.724;2024-03-08T15:39:00;9.90;95.60
19892;DHT22;10108;50.142;8.724;2024-03-08T15:41:27;9.90;95.60
19892;DHT22;10108;50.142;8.724;2024-03-08T15:43:53;9.90;95.20
19892;DHT22;10108;50.142;8.724;2024-03-08T15:46:21;9.90;95.30
19892;DHT22;10108;50.142;8.724;2024-03-08T15:48:48;9.90;95.20
19892;DHT22;10108;50.142;8.724;2024-03-08T15:51:15;9.90;95.40
19892;DHT22;10108;50.142;8.724;2024-03-08T15:53:43;9.80;95.20
19892;DHT22;10108;50.142;8.724;2024-03-08T15:56:16;9.80;95.40
19892;DHT22;10108;50.142;8.724;2024-03-08T15:58:43;9.80;95.40
19892;DHT22;10108;50.142;8.724;2024-03-08T16:01:09;9.80;95.00